Time;durP1;ratioP1;P1;durP2;ratioP2;P2;SDS_P1;SDS_P2;PMS_P1;PMS_P2;Temp;Humidity;BMP_temperature;BMP_pressure;BME280_temperature;BME280_humidity;BME280_pressure;Samples;Min_cycle;Max_cycle;Signal;HPM_P1;HPM_P2
2023/06/08 00:00:09;;;;;;;7.35;3.88;;;;;;;;;;5079077;28;20024;-77
2023/06/08 00:02:36;;;;;;;8.50;4.50;;;;;;;;;;5085580;28;21657;-77
2023/06/08 00:05:02;;;;;;;7.15;4.15;;;;;;;;;;5093892;28;20504;-73
2023/06/08 00:07:28;;;;;;;9.48;4.20;;;;;;;;;;5089213;28;20047;-73
2023/06/08 00:09:54;;;;;;;7.78;4.07;;;;;;;;;;5086771;28;20477;-73
2023/06/08 00:12:20;;;;;;;7.85;3.97;;;;;;;;;;5073182;28;20031;-72
2023/06/08 00:14:45;;;;;;;10.05;4.35;;;;;;;;;;5092557;28;20040;-73
2023/06/08 00:17:10;;;;;;;9.15;4.20;;;;;;;;;;5068905;28;20027;-73
2023/06/08 00:19:36;;;;;;;8.68;4.07;;;;;;;;;;5069038;28;20492;-73
2023/06/08 00:22:04;;;;;;;7.32;4.30;;;;;;;;;;5066440;28;20484;-73
2023/06/08 00:24:39;;;;;;;8.50;4.53;;;;;;;;;;5074021;28;20055;-73
2023/06/08 00:27:05;;;;;;;10.18;4.32;;;;;;;;;;5069570;28;20028;-73
2023/06/08 00:29:31;;;;;;;7.88;4.10;;;;;;;;;;5077305;28;20027;-73
2023/06/08 00:31:57;;;;;;;10.73;4.57;;;;;;;;;;5068254;28;20032;-73
2023/06/08 00:34:22;;;;;;;7.40;3.75;;;;;;;;;;5068889;28;20021;-74
2023/06/08 00:36:47;;;;;;;9.40;4.25;;;;;;;;;;5086786;28;20027;-73
2023/06/08 00:39:13;;;;;;;8.98;4.35;;;;;;;;;;5093631;28;20032;-73
2023/06/08 00:41:38;;;;;;;7.18;4.43;;;;;;;;;;5087503;28;20051;-73
2023/06/08 00:44:05;;;;;;;8.05;4.15;;;;;;;;;;5087924;28;20024;-73
2023/06/08 00:46:32;;;;;;;9.00;4.35;;;;;;;;;;5073238;28;20066;-75
2023/06/08 00:48:57;;;;;;;8.30;3.63;;;;;;;;;;5069674;28;20027;-74
2023/06/08 00:51:24;;;;;;;9.88;4.63;;;;;;;;;;5089188;28;20036;-73
2023/06/08 00:53:50;;;;;;;7.45;3.75;;;;;;;;;;5067105;28;20477;-76
2023/06/08 00:56:16;;;;;;;9.75;4.13;;;;;;;;;;5085609;28;20063;-73
2023/06/08 00:58:49;;;;;;;8.82;3.95;;;;;;;;;;5085932;28;20043;-76
2023/06/08 01:01:18;;;;;;;8.02;4.20;;;;;;;;;;5091738;28;20016;-73
2023/06/08 01:03:47;;;;;;;7.60;4.00;;;;;;;;;;5078594;28;20028;-73
2023/06/08 01:06:16;;;;;;;8.88;4.28;;;;;;;;;;5094379;28;20493;-73
2023/06/08 01:08:44;;;;;;;9.75;4.40;;;;;;;;;;5064927;28;20043;-73
2023/06/08 01:11:18;;;;;;;8.75;3.90;;;;;;;;;;5086974;28;20032;-72
2023/06/08 01:13:56;;;;;;;9.25;4.05;;;;;;;;;;5094583;28;20028;-72
2023/06/08 01:16:28;;;;;;;6.60;3.80;;;;;;;;;;5077339;28;20036;-73
2023/06/08 01:18:59;;;;;;;12.70;4.60;;;;;;;;;;5091921;28;20434;-73
2023/06/08 01:21:40;;;;;;;5.70;4.00;;;;;;;;;;5088149;28;20056;-73
2023/06/08 01:24:12;;;;;;;8.68;4.20;;;;;;;;;;5093256;28;20056;-73
2023/06/08 01:26:43;;;;;;;9.63;4.60;;;;;;;;;;5086269;28;20027;-72
2023/06/08 01:29:10;;;;;;;8.45;4.40;;;;;;;;;;5069724;28;20048;-73
2023/06/08 01:31:37;;;;;;;8.35;4.18;;;;;;;;;;5067163;28;20484;-73
2023/06/08 01:34:06;;;;;;;6.97;3.97;;;;;;;;;;5071485;28;20027;-73
2023/06/08 01:36:59;;;;;;;8.77;4.35;;;;;;;;;;5087632;28;20032;-73
2023/06/08 01:39:49;;;;;;;9.93;4.30;;;;;;;;;;5076230;28;20055;-72
2023/06/08 01:42:18;;;;;;;8.77;4.47;;;;;;;;;;5071836;28;20611;-72
2023/06/08 01:44:49;;;;;;;7.30;4.13;;;;;;;;;;5086660;28;20026;-73
2023/06/08 01:47:16;;;;;;;8.80;4.40;;;;;;;;;;5070030;28;20494;-72
2023/06/08 01:49:42;;;;;;;9.77;4.28;;;;;;;;;;5081351;28;20056;-74
2023/06/08 01:52:08;;;;;;;10.45;4.57;;;;;;;;;;5086152;28;20357;-73
2023/06/08 01:54:34;;;;;;;8.70;3.92;;;;;;;;;;5084580;28;20028;-72
2023/06/08 01:56:59;;;;;;;10.10;4.82;;;;;;;;;;5070681;28;20020;-73
2023/06/08 01:59:24;;;;;;;9.88;4.50;;;;;;;;;;5093830;28;20024;-72
2023/06/08 02:01:50;;;;;;;10.30;4.95;;;;;;;;;;5070594;28;20125;-73
2023/06/08 02:04:15;;;;;;;6.72;4.00;;;;;;;;;;5063627;28;20044;-73
2023/06/08 02:06:41;;;;;;;7.82;4.03;;;;;;;;;;5087360;28;20019;-73
2023/06/08 02:09:06;;;;;;;7.70;4.03;;;;;;;;;;5089041;28;20024;-73
2023/06/08 02:11:32;;;;;;;11.98;5.05;;;;;;;;;;5089614;28;20016;-73
2023/06/08 02:13:57;;;;;;;8.32;4.10;;;;;;;;;;5066313;28;20024;-72
2023/06/08 02:16:23;;;;;;;9.85;4.00;;;;;;;;;;5082283;28;20028;-72
2023/06/08 02:18:50;;;;;;;8.05;3.72;;;;;;;;;;5082977;28;20071;-73
2023/06/08 02:21:15;;;;;;;8.88;4.35;;;;;;;;;;5081843;28;20025;-73
2023/06/08 02:23:41;;;;;;;9.43;4.20;;;;;;;;;;5083216;28;20047;-73
2023/06/08 02:26:08;;;;;;;7.50;3.92;;;;;;;;;;5069218;28;20055;-74
2023/06/08 02:28:34;;;;;;;11.50;4.30;;;;;;;;;;5086535;28;20063;-73
2023/06/08 02:31:00;;;;;;;8.05;3.90;;;;;;;;;;5070228;28;20024;-73
2023/06/08 02:33:26;;;;;;;9.27;4.38;;;;;;;;;;5061064;28;20364;-73
2023/06/08 02:35:51;;;;;;;10.07;4.50;;;;;;;;;;5084436;28;20032;-73
2023/06/08 02:38:16;;;;;;;9.02;3.88;;;;;;;;;;5064733;28;20032;-73
2023/06/08 02:40:42;;;;;;;8.45;4.22;;;;;;;;;;5089522;28;20024;-73
2023/06/08 02:43:08;;;;;;;8.45;4.53;;;;;;;;;;5067891;28;20373;-73
2023/06/08 02:45:34;;;;;;;7.85;4.50;;;;;;;;;;5067098;28;20384;-73
2023/06/08 02:47:59;;;;;;;10.43;4.88;;;;;;;;;;5081228;28;20025;-73
2023/06/08 02:50:25;;;;;;;8.88;4.53;;;;;;;;;;5067635;28;20064;-73
2023/06/08 02:52:50;;;;;;;10.20;4.80;;;;;;;;;;5083375;28;20025;-73
2023/06/08 02:55:16;;;;;;;7.15;3.95;;;;;;;;;;5073561;28;20057;-75
2023/06/08 02:57:41;;;;;;;10.90;4.63;;;;;;;;;;5079389;28;20040;-73
2023/06/08 03:00:08;;;;;;;11.93;4.95;;;;;;;;;;5077132;28;20032;-72
2023/06/08 03:02:36;;;;;;;9.25;4.82;;;;;;;;;;5069591;28;20016;-74
2023/06/08 03:05:04;;;;;;;9.60;4.30;;;;;;;;;;5069969;28;20042;-73
2023/06/08 03:07:33;;;;;;;9.10;4.60;;;;;;;;;;5081772;28;20028;-73
2023/06/08 03:10:02;;;;;;;7.97;4.72;;;;;;;;;;5064648;28;20063;-73
2023/06/08 03:12:29;;;;;;;11.75;4.20;;;;;;;;;;5084158;28;20116;-72
2023/06/08 03:14:54;;;;;;;9.63;5.03;;;;;;;;;;5069719;28;20031;-73
2023/06/08 03:17:20;;;;;;;9.60;5.22;;;;;;;;;;5068117;28;20032;-73
2023/06/08 03:19:45;;;;;;;9.68;4.75;;;;;;;;;;5070275;28;20059;-73
2023/06/08 03:22:11;;;;;;;7.78;4.32;;;;;;;;;;5082963;28;20040;-72
2023/06/08 03:24:37;;;;;;;7.57;4.20;;;;;;;;;;5081248;28;20027;-73
2023/06/08 03:27:05;;;;;;;10.65;5.30;;;;;;;;;;5084539;28;20020;-73
2023/06/08 03:29:30;;;;;;;8.18;4.32;;;;;;;;;;5084715;28;20380;-73
2023/06/08 03:31:57;;;;;;;9.00;4.38;;;;;;;;;;5074120;28;20028;-72
2023/06/08 03:34:26;;;;;;;10.10;4.07;;;;;;;;;;5087686;28;20028;-72
2023/06/08 03:36:54;;;;;;;10.75;5.10;;;;;;;;;;5084348;28;20263;-73
2023/06/08 03:39:21;;;;;;;8.73;4.30;;;;;;;;;;5086811;28;20088;-73
2023/06/08 03:41:46;;;;;;;8.95;4.47;;;;;;;;;;5090544;28;20492;-73
2023/06/08 03:44:11;;;;;;;10.57;4.30;;;;;;;;;;5071564;28;20039;-72
2023/06/08 03:46:37;;;;;;;10.88;4.57;;;;;;;;;;5086351;28;20059;-75
2023/06/08 03:49:02;;;;;;;7.35;4.40;;;;;;;;;;5089527;28;20471;-76
2023/06/08 03:51:28;;;;;;;8.77;4.28;;;;;;;;;;5088421;28;20093;-72
2023/06/08 03:53:53;;;;;;;10.07;4.28;;;;;;;;;;5073430;28;20127;-72
2023/06/08 03:56:19;;;;;;;9.18;4.50;;;;;;;;;;5092097;28;20031;-72
2023/06/08 03:58:45;;;;;;;9.82;4.10;;;;;;;;;;5087863;28;20025;-73
2023/06/08 04:01:13;;;;;;;8.10;4.70;;;;;;;;;;5093705;28;20068;-73
2023/06/08 04:03:41;;;;;;;8.90;4.40;;;;;;;;;;5091016;28;20024;-73
2023/06/08 04:06:08;;;;;;;7.50;4.57;;;;;;;;;;5089367;28;20020;-72
2023/06/08 04:08:35;;;;;;;9.18;4.38;;;;;;;;;;5071782;28;20044;-73
2023/06/08 04:11:00;;;;;;;8.40;4.20;;;;;;;;;;5090006;28;20031;-76
2023/06/08 04:13:25;;;;;;;10.98;4.65;;;;;;;;;;5091837;28;20020;-72
2023/06/08 04:15:52;;;;;;;10.43;4.57;;;;;;;;;;5084830;28;20032;-73
2023/06/08 04:18:17;;;;;;;7.72;4.38;;;;;;;;;;5063446;28;20024;-73
2023/06/08 04:20:42;;;;;;;8.65;4.32;;;;;;;;;;5088509;28;20016;-73
2023/06/08 04:23:10;;;;;;;9.50;5.50;;;;;;;;;;5066388;28;20024;-75
2023/06/08 04:25:35;;;;;;;8.68;4.40;;;;;;;;;;5085557;28;20020;-73
2023/06/08 04:28:01;;;;;;;10.68;4.75;;;;;;;;;;5098581;28;20028;-75
2023/06/08 04:30:28;;;;;;;10.23;4.75;;;;;;;;;;5087499;28;20031;-73
2023/06/08 04:32:53;;;;;;;7.72;3.95;;;;;;;;;;5080913;28;20028;-72
2023/06/08 04:35:19;;;;;;;11.50;4.68;;;;;;;;;;5071169;28;20057;-73
2023/06/08 04:37:44;;;;;;;8.68;4.25;;;;;;;;;;5069499;28;20058;-73
2023/06/08 04:40:10;;;;;;;8.93;4.57;;;;;;;;;;5083067;28;20024;-75
2023/06/08 04:42:38;;;;;;;11.15;4.80;;;;;;;;;;5066238;28;20134;-74
2023/06/08 04:45:04;;;;;;;8.07;5.20;;;;;;;;;;5089042;28;20050;-72
2023/06/08 04:47:29;;;;;;;8.23;4.75;;;;;;;;;;5090486;28;20100;-72
2023/06/08 04:49:58;;;;;;;7.80;4.57;;;;;;;;;;5100126;28;20081;-74
2023/06/08 04:52:26;;;;;;;8.82;4.95;;;;;;;;;;5090047;28;20029;-73
2023/06/08 04:54:52;;;;;;;8.02;4.32;;;;;;;;;;5095246;28;20032;-74
2023/06/08 04:57:19;;;;;;;8.90;5.20;;;;;;;;;;5092181;28;20020;-73
2023/06/08 04:59:45;;;;;;;10.68;4.85;;;;;;;;;;5069585;28;20064;-75
2023/06/08 05:02:10;;;;;;;11.73;5.30;;;;;;;;;;5090177;28;20029;-72
2023/06/08 05:04:36;;;;;;;10.20;5.80;;;;;;;;;;5076033;28;20020;-74
2023/06/08 05:07:01;;;;;;;8.70;5.20;;;;;;;;;;5078665;28;20056;-73
2023/06/08 05:09:27;;;;;;;11.13;5.45;;;;;;;;;;5096610;28;20059;-72
2023/06/08 05:11:52;;;;;;;10.32;4.90;;;;;;;;;;5075499;28;20036;-74
2023/06/08 05:14:17;;;;;;;8.55;5.65;;;;;;;;;;5066875;28;20020;-73
2023/06/08 05:16:43;;;;;;;9.18;5.70;;;;;;;;;;5088129;28;20022;-72
2023/06/08 05:19:08;;;;;;;10.60;5.80;;;;;;;;;;5084087;28;20031;-74
2023/06/08 05:21:37;;;;;;;11.98;5.30;;;;;;;;;;5086350;28;20028;-72
2023/06/08 05:24:03;;;;;;;11.50;5.68;;;;;;;;;;5089862;28;20021;-74
2023/06/08 05:26:28;;;;;;;9.48;5.63;;;;;;;;;;5067923;28;20205;-77
2023/06/08 05:28:54;;;;;;;10.15;5.55;;;;;;;;;;5087066;28;20033;-73
2023/06/08 05:31:19;;;;;;;9.50;5.55;;;;;;;;;;5086531;28;20471;-73
2023/06/08 05:33:44;;;;;;;9.30;5.63;;;;;;;;;;5083066;28;20107;-73
2023/06/08 05:36:12;;;;;;;10.18;5.82;;;;;;;;;;5068672;28;20024;-77
2023/06/08 05:38:37;;;;;;;12.05;5.82;;;;;;;;;;5063039;28;20020;-75
2023/06/08 05:41:03;;;;;;;10.85;5.78;;;;;;;;;;5081511;28;20039;-74
2023/06/08 05:43:28;;;;;;;10.35;5.82;;;;;;;;;;5085968;28;20150;-73
2023/06/08 05:45:53;;;;;;;9.80;5.50;;;;;;;;;;5078980;28;20477;-74
2023/06/08 05:48:19;;;;;;;10.20;6.35;;;;;;;;;;5083593;28;20461;-73
2023/06/08 05:50:45;;;;;;;9.93;5.60;;;;;;;;;;5086315;28;20032;-72
2023/06/08 05:53:10;;;;;;;11.38;6.75;;;;;;;;;;5073875;28;20026;-72
2023/06/08 05:55:36;;;;;;;12.38;6.43;;;;;;;;;;5070713;28;20062;-72
2023/06/08 05:58:01;;;;;;;8.65;5.38;;;;;;;;;;5071910;28;20037;-74
2023/06/08 06:00:27;;;;;;;9.50;6.05;;;;;;;;;;5082909;28;20056;-73
2023/06/08 06:02:53;;;;;;;10.23;6.28;;;;;;;;;;5064368;28;20035;-74
2023/06/08 06:05:18;;;;;;;9.35;5.65;;;;;;;;;;5069748;28;20042;-74
2023/06/08 06:07:44;;;;;;;10.07;5.90;;;;;;;;;;5091728;28;20043;-72
2023/06/08 06:10:10;;;;;;;12.63;6.28;;;;;;;;;;5075459;28;20028;-73
2023/06/08 06:12:36;;;;;;;9.52;5.85;;;;;;;;;;5069859;28;20045;-72
2023/06/08 06:15:01;;;;;;;9.90;5.80;;;;;;;;;;5094510;28;20040;-75
2023/06/08 06:17:27;;;;;;;10.60;6.15;;;;;;;;;;5072472;28;20028;-73
2023/06/08 06:19:52;;;;;;;10.80;5.60;;;;;;;;;;5095158;28;20046;-72
2023/06/08 06:22:18;;;;;;;8.18;5.75;;;;;;;;;;5092761;28;20025;-73
2023/06/08 06:24:43;;;;;;;10.10;6.05;;;;;;;;;;5091217;28;20024;-73
2023/06/08 06:27:09;;;;;;;9.77;5.60;;;;;;;;;;5071905;28;20020;-73
2023/06/08 06:29:35;;;;;;;11.32;5.90;;;;;;;;;;5090387;28;20020;-73
2023/06/08 06:32:00;;;;;;;9.43;6.10;;;;;;;;;;5063153;28;20044;-74
2023/06/08 06:34:26;;;;;;;9.60;5.60;;;;;;;;;;5080716;28;20028;-72
2023/06/08 06:36:51;;;;;;;12.63;6.53;;;;;;;;;;5083000;28;20054;-72
2023/06/08 06:39:19;;;;;;;10.27;6.25;;;;;;;;;;5086151;28;20063;-73
2023/06/08 06:41:44;;;;;;;10.18;6.25;;;;;;;;;;5087384;28;20019;-71
2023/06/08 06:44:09;;;;;;;11.60;6.80;;;;;;;;;;5064855;28;20024;-71
2023/06/08 06:46:35;;;;;;;10.20;5.97;;;;;;;;;;5070033;28;20028;-72
2023/06/08 06:49:00;;;;;;;10.23;5.35;;;;;;;;;;5070166;28;20387;-75
2023/06/08 06:51:26;;;;;;;10.02;7.22;;;;;;;;;;5072129;28;20024;-72
2023/06/08 06:53:52;;;;;;;10.48;7.13;;;;;;;;;;5069894;28;20039;-74
2023/06/08 06:56:17;;;;;;;9.82;6.88;;;;;;;;;;5086143;28;20036;-72
2023/06/08 06:58:44;;;;;;;11.55;7.43;;;;;;;;;;5072670;28;20035;-71
2023/06/08 07:01:14;;;;;;;10.00;6.93;;;;;;;;;;5064816;28;20028;-72
2023/06/08 07:03:42;;;;;;;12.40;6.47;;;;;;;;;;5087801;28;20023;-72
2023/06/08 07:06:08;;;;;;;10.40;7.13;;;;;;;;;;5062903;28;20051;-72
2023/06/08 07:08:36;;;;;;;10.95;6.82;;;;;;;;;;5068749;28;20039;-72
2023/06/08 07:11:01;;;;;;;12.40;7.18;;;;;;;;;;5067282;28;20027;-72
2023/06/08 07:13:27;;;;;;;10.82;6.68;;;;;;;;;;5068525;28;20384;-71
2023/06/08 07:15:54;;;;;;;12.55;7.47;;;;;;;;;;5074986;28;20047;-72
2023/06/08 07:18:19;;;;;;;11.35;7.00;;;;;;;;;;5069596;28;20024;-72
2023/06/08 07:20:45;;;;;;;13.98;7.60;;;;;;;;;;5073392;28;20114;-71
2023/06/08 07:23:10;;;;;;;13.15;7.57;;;;;;;;;;5067696;28;20452;-72
2023/06/08 07:25:37;;;;;;;12.63;7.68;;;;;;;;;;5080826;28;20768;-72
2023/06/08 07:28:06;;;;;;;12.32;7.20;;;;;;;;;;5070059;28;20024;-73
2023/06/08 07:30:32;;;;;;;11.00;7.82;;;;;;;;;;5085691;28;20035;-72
2023/06/08 07:32:58;;;;;;;14.45;7.15;;;;;;;;;;5086087;28;20028;-73
2023/06/08 07:35:24;;;;;;;14.20;7.47;;;;;;;;;;5087886;28;20114;-75
2023/06/08 07:37:49;;;;;;;15.40;7.68;;;;;;;;;;5085710;28;20055;-72
2023/06/08 07:40:17;;;;;;;11.25;7.43;;;;;;;;;;5088292;28;20123;-74
2023/06/08 07:42:43;;;;;;;14.80;7.97;;;;;;;;;;5089367;28;20048;-72
2023/06/08 07:45:08;;;;;;;12.20;7.20;;;;;;;;;;5083055;28;20362;-73
2023/06/08 07:47:34;;;;;;;13.90;7.65;;;;;;;;;;5066844;28;20118;-72
2023/06/08 07:49:59;;;;;;;13.57;7.50;;;;;;;;;;5079348;28;20103;-72
2023/06/08 07:52:25;;;;;;;13.50;8.52;;;;;;;;;;5071221;28;20051;-72
2023/06/08 07:54:50;;;;;;;15.57;7.80;;;;;;;;;;5087523;28;20468;-72
2023/06/08 07:57:16;;;;;;;9.38;6.72;;;;;;;;;;5067286;28;20392;-74
2023/06/08 07:59:41;;;;;;;11.85;7.55;;;;;;;;;;5065997;28;20452;-74
2023/06/08 08:02:09;;;;;;;11.65;6.95;;;;;;;;;;5067120;28;20020;-73
2023/06/08 08:04:34;;;;;;;12.73;7.50;;;;;;;;;;5064261;28;20031;-72
2023/06/08 08:07:01;;;;;;;13.32;7.80;;;;;;;;;;5070125;28;20025;-72
2023/06/08 08:09:26;;;;;;;13.18;7.53;;;;;;;;;;5094064;28;20045;-72
2023/06/08 08:11:52;;;;;;;13.30;7.75;;;;;;;;;;5086285;28;20518;-72
2023/06/08 08:14:17;;;;;;;11.27;7.25;;;;;;;;;;5069816;28;20035;-72
2023/06/08 08:16:42;;;;;;;12.90;6.53;;;;;;;;;;5074839;28;20144;-72
2023/06/08 08:19:08;;;;;;;11.10;6.82;;;;;;;;;;5066200;28;20039;-71
2023/06/08 08:21:33;;;;;;;10.75;6.82;;;;;;;;;;5076521;28;20024;-71
2023/06/08 08:24:00;;;;;;;11.38;6.57;;;;;;;;;;5073637;28;20024;-73
2023/06/08 08:26:25;;;;;;;10.32;6.60;;;;;;;;;;5085054;28;20029;-72
2023/06/08 08:28:51;;;;;;;10.88;6.60;;;;;;;;;;5073488;28;20024;-72
2023/06/08 08:31:16;;;;;;;10.52;6.13;;;;;;;;;;5090556;28;20028;-73
2023/06/08 08:33:42;;;;;;;11.70;6.95;;;;;;;;;;5093929;28;20106;-74
2023/06/08 08:36:08;;;;;;;11.45;6.97;;;;;;;;;;5079377;28;20039;-73
2023/06/08 08:38:33;;;;;;;9.73;7.00;;;;;;;;;;5073396;28;20025;-72
2023/06/08 08:41:13;;;;;;;12.23;6.97;;;;;;;;;;5093306;28;20035;-72
2023/06/08 08:44:03;;;;;;;9.90;6.45;;;;;;;;;;5079336;28;20520;-72
2023/06/08 08:46:33;;;;;;;11.55;6.30;;;;;;;;;;5069710;28;20031;-72
2023/06/08 08:49:04;;;;;;;10.85;6.20;;;;;;;;;;5086852;28;20042;-70
2023/06/08 08:51:29;;;;;;;11.60;6.70;;;;;;;;;;5074602;28;20021;-72
2023/06/08 08:53:57;;;;;;;10.52;6.43;;;;;;;;;;5074484;28;20031;-72
2023/06/08 08:56:25;;;;;;;12.63;7.20;;;;;;;;;;5066183;28;20043;-71
2023/06/08 08:58:50;;;;;;;9.20;6.25;;;;;;;;;;5069777;28;20039;-71
2023/06/08 09:01:19;;;;;;;10.88;6.32;;;;;;;;;;5083697;28;20423;-72
2023/06/08 09:03:46;;;;;;;8.95;5.78;;;;;;;;;;5083172;28;20020;-71
2023/06/08 09:06:12;;;;;;;9.32;6.78;;;;;;;;;;5093824;28;20020;-71
2023/06/08 09:08:38;;;;;;;10.32;6.57;;;;;;;;;;5087468;28;20073;-72
2023/06/08 09:11:09;;;;;;;10.50;6.28;;;;;;;;;;5088672;28;20051;-72
2023/06/08 09:13:35;;;;;;;10.18;5.80;;;;;;;;;;5087394;28;20214;-73
2023/06/08 09:16:15;;;;;;;10.52;5.75;;;;;;;;;;5090045;28;20032;-71
2023/06/08 09:18:43;;;;;;;11.02;6.00;;;;;;;;;;5067701;28;20404;-71
2023/06/08 09:21:27;;;;;;;9.93;5.68;;;;;;;;;;5073779;28;20031;-72
2023/06/08 09:24:22;;;;;;;10.48;5.43;;;;;;;;;;5069151;28;20030;-72
2023/06/08 09:26:59;;;;;;;8.93;5.50;;;;;;;;;;5059316;28;20035;-71
2023/06/08 09:29:40;;;;;;;10.82;5.50;;;;;;;;;;5094395;28;20048;-71
2023/06/08 09:32:12;;;;;;;9.52;5.43;;;;;;;;;;5082278;28;20028;-73
2023/06/08 09:34:51;;;;;;;10.20;5.70;;;;;;;;;;5072438;28;20031;-72
2023/06/08 09:37:18;;;;;;;8.23;5.20;;;;;;;;;;5076811;28;20400;-72
2023/06/08 09:39:45;;;;;;;7.78;5.22;;;;;;;;;;5077376;28;20022;-72
2023/06/08 09:42:11;;;;;;;10.52;5.38;;;;;;;;;;5095046;28;20127;-71
2023/06/08 09:44:38;;;;;;;7.03;4.60;;;;;;;;;;5094477;28;20056;-71
2023/06/08 09:47:23;;;;;;;11.63;5.80;;;;;;;;;;5093474;28;20024;-73
2023/06/08 09:49:52;;;;;;;8.05;4.28;;;;;;;;;;5078043;28;20021;-71
2023/06/08 09:52:22;;;;;;;9.27;4.65;;;;;;;;;;5068054;28;20480;-72
2023/06/08 09:54:48;;;;;;;8.85;4.57;;;;;;;;;;5068611;28;20111;-71
2023/06/08 09:57:18;;;;;;;7.32;4.93;;;;;;;;;;5065159;28;20063;-72
2023/06/08 10:00:14;;;;;;;8.70;5.00;;;;;;;;;;5073285;28;20024;-72
2023/06/08 10:03:06;;;;;;;9.88;5.70;;;;;;;;;;5083039;28;20358;-72
2023/06/08 10:05:33;;;;;;;8.77;5.57;;;;;;;;;;5089698;28;20103;-71
2023/06/08 10:08:02;;;;;;;12.52;5.97;;;;;;;;;;5074253;28;20082;-72
2023/06/08 10:10:36;;;;;;;9.38;5.28;;;;;;;;;;5086046;28;20027;-74
2023/06/08 10:13:03;;;;;;;8.18;5.30;;;;;;;;;;5088655;28;20016;-72
2023/06/08 10:15:29;;;;;;;9.02;5.15;;;;;;;;;;5084053;28;20055;-71
2023/06/08 10:17:54;;;;;;;10.18;5.57;;;;;;;;;;5089571;28;20032;-72
2023/06/08 10:20:20;;;;;;;9.63;4.95;;;;;;;;;;5092224;28;20044;-72
2023/06/08 10:22:46;;;;;;;9.13;5.13;;;;;;;;;;5096811;28;20053;-72
2023/06/08 10:25:13;;;;;;;10.00;5.43;;;;;;;;;;5065969;28;20024;-72
2023/06/08 10:27:47;;;;;;;10.88;5.75;;;;;;;;;;5075286;28;20025;-71
2023/06/08 10:30:28;;;;;;;8.05;5.05;;;;;;;;;;5088348;28;20046;-72
2023/06/08 10:32:57;;;;;;;8.73;5.15;;;;;;;;;;5085855;28;20029;-71
2023/06/08 10:35:23;;;;;;;9.30;4.97;;;;;;;;;;5089725;28;20036;-71
2023/06/08 10:37:48;;;;;;;10.23;5.43;;;;;;;;;;5095154;28;20020;-72
2023/06/08 10:40:14;;;;;;;8.02;4.82;;;;;;;;;;5088177;28;20036;-72
2023/06/08 10:42:57;;;;;;;9.63;4.65;;;;;;;;;;5068874;28;20051;-71
2023/06/08 10:45:33;;;;;;;8.07;4.55;;;;;;;;;;5085303;28;20102;-73
2023/06/08 10:48:04;;;;;;;10.40;5.75;;;;;;;;;;5065007;28;20448;-72
2023/06/08 10:50:31;;;;;;;10.40;4.95;;;;;;;;;;5061911;28;20030;-74
2023/06/08 10:52:58;;;;;;;8.52;4.93;;;;;;;;;;5079455;28;20035;-71
2023/06/08 10:55:25;;;;;;;9.68;4.80;;;;;;;;;;5063592;28;20053;-71
2023/06/08 10:57:52;;;;;;;9.40;4.95;;;;;;;;;;5069048;28;20438;-71
2023/06/08 11:00:31;;;;;;;9.48;5.13;;;;;;;;;;5069722;28;20025;-72
2023/06/08 11:03:04;;;;;;;9.52;4.88;;;;;;;;;;5078942;28;20016;-72
2023/06/08 11:05:31;;;;;;;9.63;5.13;;;;;;;;;;5066378;28;20373;-72
2023/06/08 11:07:57;;;;;;;9.75;5.85;;;;;;;;;;5080092;28;20031;-72
2023/06/08 11:10:23;;;;;;;8.68;4.40;;;;;;;;;;5091601;28;20035;-73
2023/06/08 11:12:49;;;;;;;8.77;5.00;;;;;;;;;;5067260;28;20032;-72
2023/06/08 11:15:15;;;;;;;11.52;5.70;;;;;;;;;;5068470;28;20024;-72
2023/06/08 11:17:58;;;;;;;9.60;5.10;;;;;;;;;;5090114;28;20044;-72
2023/06/08 11:20:24;;;;;;;10.80;5.10;;;;;;;;;;5094273;28;20433;-71
2023/06/08 11:22:50;;;;;;;11.93;5.32;;;;;;;;;;5089348;28;20020;-71
2023/06/08 11:25:20;;;;;;;10.90;5.15;;;;;;;;;;5087222;28;20022;-72
2023/06/08 11:27:46;;;;;;;9.23;5.45;;;;;;;;;;5064193;28;20025;-73
2023/06/08 11:30:17;;;;;;;8.70;5.60;;;;;;;;;;5071781;28;20031;-72
2023/06/08 11:32:47;;;;;;;9.07;5.37;;;;;;;;;;5063792;28;20032;-72
2023/06/08 11:35:13;;;;;;;8.38;4.88;;;;;;;;;;5085495;28;20283;-72
2023/06/08 11:37:41;;;;;;;8.40;5.45;;;;;;;;;;5082944;28;20473;-72
2023/06/08 11:40:11;;;;;;;9.70;5.10;;;;;;;;;;5094009;28;20020;-72
2023/06/08 11:42:37;;;;;;;9.65;5.20;;;;;;;;;;5094660;28;20040;-71
2023/06/08 11:45:07;;;;;;;8.75;5.30;;;;;;;;;;5090830;28;20020;-72
2023/06/08 11:47:33;;;;;;;8.75;5.13;;;;;;;;;;5071012;28;20035;-71
2023/06/08 11:50:00;;;;;;;8.60;4.82;;;;;;;;;;5090353;28;20033;-72
2023/06/08 11:52:27;;;;;;;8.50;5.43;;;;;;;;;;5078776;28;20021;-72
2023/06/08 11:54:59;;;;;;;9.50;4.80;;;;;;;;;;5090975;28;20028;-72
2023/06/08 11:57:44;;;;;;;6.68;4.63;;;;;;;;;;5096641;28;20028;-72
2023/06/08 12:00:15;;;;;;;8.45;5.25;;;;;;;;;;5079280;28;20059;-75
2023/06/08 12:02:41;;;;;;;8.95;4.53;;;;;;;;;;5069599;28;20032;-72
2023/06/08 12:05:13;;;;;;;8.00;5.00;;;;;;;;;;5088826;28;20024;-73
2023/06/08 12:07:39;;;;;;;9.30;5.32;;;;;;;;;;5081344;28;20043;-72
2023/06/08 12:10:05;;;;;;;9.38;4.70;;;;;;;;;;5079707;28;20032;-72
2023/06/08 12:12:31;;;;;;;9.30;4.40;;;;;;;;;;5080678;28;20028;-72
2023/06/08 12:14:57;;;;;;;8.15;4.57;;;;;;;;;;5069712;28;20024;-72
2023/06/08 12:17:27;;;;;;;8.98;4.30;;;;;;;;;;5075621;28;20028;-74
2023/06/08 12:19:55;;;;;;;8.13;4.50;;;;;;;;;;5091891;28;20035;-73
2023/06/08 12:22:21;;;;;;;7.97;4.15;;;;;;;;;;5095209;28;20069;-72
2023/06/08 12:24:47;;;;;;;6.85;4.15;;;;;;;;;;5089650;28;20407;-72
2023/06/08 12:27:12;;;;;;;7.68;4.30;;;;;;;;;;5088987;28;20440;-72
2023/06/08 12:29:38;;;;;;;7.20;4.38;;;;;;;;;;5073008;28;20032;-73
2023/06/08 12:32:04;;;;;;;7.82;4.38;;;;;;;;;;5080625;28;20023;-73
2023/06/08 12:34:30;;;;;;;7.03;4.05;;;;;;;;;;5087760;28;20107;-73
2023/06/08 12:36:56;;;;;;;6.93;4.32;;;;;;;;;;5089533;28;20020;-73
2023/06/08 12:39:21;;;;;;;8.05;4.32;;;;;;;;;;5073720;28;20035;-73
2023/06/08 12:41:47;;;;;;;7.57;4.00;;;;;;;;;;5077698;28;20028;-72
2023/06/08 12:44:12;;;;;;;6.50;4.18;;;;;;;;;;5092388;28;20037;-72
2023/06/08 12:46:39;;;;;;;7.95;3.65;;;;;;;;;;5084320;28;20430;-72
2023/06/08 12:49:04;;;;;;;5.63;3.65;;;;;;;;;;5088550;28;20479;-76
2023/06/08 12:51:30;;;;;;;7.32;3.67;;;;;;;;;;5076395;28;20056;-76
2023/06/08 12:53:55;;;;;;;5.85;3.50;;;;;;;;;;5078453;28;20025;-75
2023/06/08 12:56:21;;;;;;;5.20;3.47;;;;;;;;;;5062054;28;20043;-76
2023/06/08 12:58:47;;;;;;;8.10;3.58;;;;;;;;;;5084321;28;20425;-75
2023/06/08 13:01:12;;;;;;;6.00;3.40;;;;;;;;;;5077048;28;20036;-76
2023/06/08 13:03:39;;;;;;;5.07;3.53;;;;;;;;;;5078986;28;20032;-75
2023/06/08 13:06:05;;;;;;;5.75;3.40;;;;;;;;;;5076602;28;20242;-76
2023/06/08 13:08:30;;;;;;;7.70;3.58;;;;;;;;;;5079886;28;20478;-76
2023/06/08 13:10:55;;;;;;;6.60;3.63;;;;;;;;;;5057954;28;20039;-76
2023/06/08 13:13:21;;;;;;;5.95;3.20;;;;;;;;;;5080381;28;20027;-76
2023/06/08 13:15:48;;;;;;;6.85;3.22;;;;;;;;;;5078442;28;20052;-76
2023/06/08 13:18:14;;;;;;;5.95;3.20;;;;;;;;;;5059250;28;20039;-76
2023/06/08 13:20:39;;;;;;;6.90;3.25;;;;;;;;;;5061767;28;20024;-76
2023/06/08 13:23:05;;;;;;;5.18;3.30;;;;;;;;;;5082625;28;20027;-76
2023/06/08 13:25:30;;;;;;;5.03;3.33;;;;;;;;;;5077029;28;20024;-76
2023/06/08 13:27:56;;;;;;;4.97;3.33;;;;;;;;;;5081399;28;20031;-76
2023/06/08 13:30:22;;;;;;;4.55;3.00;;;;;;;;;;5076658;28;20035;-76
2023/06/08 13:32:47;;;;;;;5.35;3.30;;;;;;;;;;5078212;28;20013;-76
2023/06/08 13:35:13;;;;;;;4.75;2.90;;;;;;;;;;5083127;28;20031;-76
2023/06/08 13:37:38;;;;;;;6.00;3.13;;;;;;;;;;5076013;28;20454;-76
2023/06/08 13:40:05;;;;;;;6.05;3.20;;;;;;;;;;5077730;28;20033;-76
2023/06/08 13:42:31;;;;;;;6.47;3.30;;;;;;;;;;5076465;28;20048;-76
2023/06/08 13:44:56;;;;;;;5.28;3.00;;;;;;;;;;5077111;28;20182;-76
2023/06/08 13:47:22;;;;;;;5.10;3.50;;;;;;;;;;5082104;28;20643;-76
2023/06/08 13:49:47;;;;;;;5.07;3.10;;;;;;;;;;5082593;28;20038;-77
2023/06/08 13:52:13;;;;;;;4.28;3.03;;;;;;;;;;5077238;28;20083;-75
2023/06/08 13:54:38;;;;;;;4.88;3.13;;;;;;;;;;5077531;28;20051;-76
2023/06/08 13:57:04;;;;;;;5.57;3.08;;;;;;;;;;5077051;28;20036;-77
2023/06/08 13:59:30;;;;;;;5.13;3.30;;;;;;;;;;5060704;28;20678;-76
2023/06/08 14:01:55;;;;;;;4.55;3.15;;;;;;;;;;5068708;28;20026;-76
2023/06/08 14:04:21;;;;;;;5.65;3.70;;;;;;;;;;5073726;28;20031;-76
2023/06/08 14:06:47;;;;;;;6.03;3.50;;;;;;;;;;5086731;28;20024;-76
2023/06/08 14:09:13;;;;;;;4.45;3.20;;;;;;;;;;5085513;28;20051;-76
2023/06/08 14:11:39;;;;;;;4.95;3.40;;;;;;;;;;5060083;28;20026;-75
2023/06/08 14:14:05;;;;;;;4.35;3.22;;;;;;;;;;5072924;28;20111;-76
2023/06/08 14:16:30;;;;;;;4.90;3.15;;;;;;;;;;5078016;28;20099;-76
2023/06/08 14:18:56;;;;;;;6.22;3.45;;;;;;;;;;5073839;28;20498;-76
2023/06/08 14:21:21;;;;;;;5.13;3.20;;;;;;;;;;5073666;28;20036;-77
2023/06/08 14:23:47;;;;;;;6.22;3.50;;;;;;;;;;5071112;28;20130;-76
2023/06/08 14:26:12;;;;;;;6.10;3.70;;;;;;;;;;5060412;28;20549;-76
2023/06/08 14:28:40;;;;;;;5.70;3.53;;;;;;;;;;5073264;28;20057;-76
2023/06/08 14:31:05;;;;;;;4.38;3.45;;;;;;;;;;5077268;28;20554;-76
2023/06/08 14:33:30;;;;;;;4.88;3.55;;;;;;;;;;5072821;28;20111;-77
2023/06/08 14:35:56;;;;;;;5.88;3.75;;;;;;;;;;5073467;28;20016;-77
2023/06/08 14:38:21;;;;;;;7.35;3.67;;;;;;;;;;5076989;28;20023;-76